Time,TemperatureF,DewpointF,PressureIn,WindDirection,WindDirectionDegrees,WindSpeedMPH,WindSpeedGustMPH,Humidity,HourlyPrecipIn,Conditions,Clouds,dailyrainin,SoftwareType,DateUTC
2013-02-11 00:02:00,33.9,33.7,29.12,SSE,159,7.0,7.0,99,0.00,,---,0.00,VWS V14.01,2013-02-11 06:02:00,
2013-02-11 00:07:00,33.9,33.7,29.11,South,184,5.0,7.0,99,0.01,,---,0.00,VWS V14.01,2013-02-11 06:07:00,
2013-02-11 00:13:00,33.8,33.5,29.11,SSE,163,3.0,7.0,99,0.01,,---,0.00,VWS V14.01,2013-02-11 06:13:00,
2013-02-11 00:18:00,33.8,33.5,29.12,SE,138,3.0,7.0,99,0.01,,---,0.00,VWS V14.01,2013-02-11 06:18:00,
2013-02-11 00:23:00,33.7,33.5,29.12,South,177,0.0,8.0,99,0.01,,---,0.00,VWS V14.01,2013-02-11 06:23:00,
2013-02-11 00:28:00,33.6,33.3,29.12,South,175,4.0,8.0,99,0.01,,---,0.00,VWS V14.01,2013-02-11 06:28:00,
2013-02-11 00:33:00,33.5,33.2,29.12,SSE,167,1.0,9.0,99,0.00,,---,0.00,VWS V14.01,2013-02-11 06:33:00,
2013-02-11 00:38:00,33.5,33.2,29.11,SSE,160,4.0,10.0,99,0.00,,---,0.00,VWS V14.01,2013-02-11 06:38:00,
2013-02-11 00:43:00,33.4,33.2,29.11,SSE,168,2.0,10.0,99,0.01,,---,0.01,VWS V14.01,2013-02-11 06:43:00,
2013-02-11 00:48:00,33.4,33.2,29.11,SE,146,5.0,10.0,99,0.01,,---,0.01,VWS V14.01,2013-02-11 06:48:00,
2013-02-11 00:53:00,33.4,33.2,29.11,SSE,167,2.0,10.0,99,0.01,,---,0.01,VWS V14.01,2013-02-11 06:53:00,
2013-02-11 00:58:00,33.3,33.0,29.11,SSE,147,5.0,10.0,99,0.01,,---,0.01,VWS V14.01,2013-02-11 06:58:00,
2013-02-11 01:03:00,33.4,33.2,29.11,SSE,166,3.0,12.0,99,0.01,,---,0.01,VWS V14.01,2013-02-11 07:03:00,
2013-02-11 01:08:00,33.4,33.2,29.11,South,189,2.0,12.0,99,0.01,,---,0.01,VWS V14.01,2013-02-11 07:08:00,
2013-02-11 01:13:00,33.4,33.2,29.11,SE,136,6.0,14.0,99,0.01,,---,0.01,VWS V14.01,2013-02-11 07:13:00,
2013-02-11 01:18:00,33.4,33.2,29.11,SSE,161,2.0,14.0,99,0.01,,---,0.01,VWS V14.01,2013-02-11 07:18:00,
2013-02-11 01:23:00,33.5,33.2,29.11,SW,215,12.0,14.0,99,0.01,,---,0.01,VWS V14.01,2013-02-11 07:23:00,
2013-02-11 01:28:00,33.4,33.2,29.11,SSE,148,6.0,14.0,99,0.01,,---,0.01,VWS V14.01,2013-02-11 07:28:00,
2013-02-11 01:33:00,33.4,33.2,29.11,South,178,4.0,9.0,99,0.01,,---,0.01,VWS V14.01,2013-02-11 07:33:00,
2013-02-11 01:38:00,33.4,33.2,29.11,South,182,4.0,9.0,99,0.01,,---,0.01,VWS V14.01,2013-02-11 07:38:00,
2013-02-11 01:43:00,33.3,33.0,29.11,SSE,165,4.0,9.0,99,0.01,,---,0.01,VWS V14.01,2013-02-11 07:43:00,
2013-02-11 01:48:00,33.3,33.0,29.11,South,181,3.0,9.0,99,0.01,,---,0.01,VWS V14.01,2013-02-11 07:48:00,
2013-02-11 01:53:00,33.2,33.0,29.11,South,170,6.0,12.0,99,0.01,,---,0.01,VWS V14.01,2013-02-11 07:53:00,
2013-02-11 01:58:00,33.2,33.0,29.11,South,182,3.0,12.0,99,0.01,,---,0.01,VWS V14.01,2013-02-11 07:58:00,
2013-02-11 02:03:00,33.2,33.0,29.11,South,188,4.0,7.0,99,0.00,,---,0.01,VWS V14.01,2013-02-11 08:03:00,
2013-02-11 02:08:00,33.1,32.8,29.11,SSW,194,1.0,12.0,99,0.00,,---,0.01,VWS V14.01,2013-02-11 08:08:00,
2013-02-11 02:13:00,33.0,32.8,29.11,SSE,168,2.0,12.0,99,0.00,,---,0.01,VWS V14.01,2013-02-11 08:13:00,
2013-02-11 02:18:00,33.0,32.8,29.11,South,170,4.0,12.0,99,0.00,,---,0.01,VWS V14.01,2013-02-11 08:18:00,
2013-02-11 02:23:00,32.9,32.7,29.12,South,169,2.0,12.0,99,0.00,,---,0.01,VWS V14.01,2013-02-11 08:23:00,
2013-02-11 02:28:00,32.8,32.5,29.12,South,182,5.0,12.0,99,0.01,,---,0.02,VWS V14.01,2013-02-11 08:28:00,
2013-02-11 02:33:00,32.7,32.5,29.12,South,177,4.0,4.0,99,0.01,,---,0.02,VWS V14.01,2013-02-11 08:33:00,
2013-02-11 02:38:00,32.6,32.3,29.11,SSE,148,4.0,6.0,99,0.01,,---,0.02,VWS V14.01,2013-02-11 08:38:00,
2013-02-11 02:43:00,32.5,32.2,29.12,South,184,4.0,6.0,99,0.01,,---,0.02,VWS V14.01,2013-02-11 08:43:00,
2013-02-11 02:48:00,32.4,32.2,29.12,South,182,3.0,6.0,99,0.01,,---,0.02,VWS V14.01,2013-02-11 08:48:00,
2013-02-11 02:53:00,32.3,32.0,29.12,SSE,165,3.0,6.0,99,0.01,,---,0.02,VWS V14.01,2013-02-11 08:53:00,
2013-02-11 02:58:00,32.2,32.0,29.11,South,179,3.0,6.0,99,0.01,,---,0.02,VWS V14.01,2013-02-11 08:58:00,
2013-02-11 03:03:00,32.1,31.9,29.12,South,189,1.0,6.0,99,0.01,,---,0.02,VWS V14.01,2013-02-11 09:03:00,
2013-02-11 03:08:00,32.1,31.9,29.12,SSW,202,2.0,8.0,99,0.01,,---,0.02,VWS V14.01,2013-02-11 09:08:00,
2013-02-11 03:13:00,32.0,31.8,29.12,South,171,2.0,9.0,99,0.01,,---,0.02,VWS V14.01,2013-02-11 09:13:00,
2013-02-11 03:18:00,32.0,31.8,29.12,SSW,198,4.0,9.0,99,0.01,,---,0.02,VWS V14.01,2013-02-11 09:18:00,
2013-02-11 03:23:00,31.9,31.6,29.12,South,173,3.0,9.0,99,0.01,,---,0.02,VWS V14.01,2013-02-11 09:23:00,
2013-02-11 03:28:00,31.9,31.6,29.12,South,171,2.0,9.0,99,0.01,,---,0.02,VWS V14.01,2013-02-11 09:28:00,
2013-02-11 03:33:00,31.9,31.6,29.12,SSW,199,4.0,9.0,99,0.00,,---,0.02,VWS V14.01,2013-02-11 09:33:00,
2013-02-11 03:38:00,32.0,31.8,29.12,SSW,195,6.0,11.0,99,0.00,,---,0.02,VWS V14.01,2013-02-11 09:38:00,
2013-02-11 03:43:00,32.0,31.8,29.12,SW,224,3.0,14.0,99,0.00,,---,0.02,VWS V14.01,2013-02-11 09:43:00,
2013-02-11 03:48:00,32.0,31.8,29.12,SSW,196,7.0,14.0,99,0.00,,---,0.02,VWS V14.01,2013-02-11 09:48:00,
2013-02-11 03:53:00,31.9,31.6,29.12,SE,125,4.0,14.0,99,0.00,,---,0.02,VWS V14.01,2013-02-11 09:53:00,
2013-02-11 03:58:00,31.9,31.6,29.13,SSW,194,7.0,14.0,99,0.00,,---,0.02,VWS V14.01,2013-02-11 09:58:00,
2013-02-11 04:03:00,31.9,31.6,29.13,SSW,194,9.0,11.0,99,0.00,,---,0.02,VWS V14.01,2013-02-11 10:03:00,
2013-02-11 04:08:00,31.9,31.6,29.13,South,178,3.0,11.0,99,0.00,,---,0.02,VWS V14.01,2013-02-11 10:08:00,
2013-02-11 04:13:00,31.8,31.5,29.14,SSW,198,4.0,13.0,99,0.00,,---,0.02,VWS V14.01,2013-02-11 10:13:00,
2013-02-11 04:18:00,31.7,31.5,29.14,SSW,202,5.0,13.0,99,0.00,,---,0.02,VWS V14.01,2013-02-11 10:18:00,
2013-02-11 04:23:00,31.7,31.5,29.14,SSW,201,4.0,13.0,99,0.00,,---,0.02,VWS V14.01,2013-02-11 10:23:00,
2013-02-11 04:28:00,31.7,31.5,29.14,SSW,205,10.0,13.0,99,0.00,,---,0.02,VWS V14.01,2013-02-11 10:28:00,
2013-02-11 04:33:00,31.6,31.4,29.15,SW,217,10.0,14.0,99,0.00,,---,0.02,VWS V14.01,2013-02-11 10:33:00,
2013-02-11 04:38:00,31.6,31.4,29.15,SW,217,7.0,14.0,99,0.00,,---,0.02,VWS V14.01,2013-02-11 10:38:00,
2013-02-11 04:43:00,31.6,31.4,29.15,South,191,6.0,14.0,99,0.00,,---,0.02,VWS V14.01,2013-02-11 10:43:00,
2013-02-11 04:48:00,31.6,31.4,29.16,SW,225,7.0,14.0,99,0.00,,---,0.02,VWS V14.01,2013-02-11 10:48:00,
2013-02-11 04:53:00,31.6,31.4,29.16,South,184,9.0,14.0,99,0.00,,---,0.02,VWS V14.01,2013-02-11 10:53:00,
2013-02-11 04:58:00,31.5,31.2,29.17,SSW,207,5.0,15.0,99,0.00,,---,0.02,VWS V14.01,2013-02-11 10:58:00,
2013-02-11 05:03:00,31.5,31.2,29.17,South,176,7.0,17.0,99,0.00,,---,0.02,VWS V14.01,2013-02-11 11:03:00,
2013-02-11 05:08:00,31.4,31.1,29.17,SW,226,11.0,18.0,99,0.00,,---,0.02,VWS V14.01,2013-02-11 11:08:00,
2013-02-11 05:13:00,31.3,31.0,29.17,WSW,244,4.0,20.0,99,0.00,,---,0.02,VWS V14.01,2013-02-11 11:13:00,
2013-02-11 05:18:00,31.3,31.0,29.18,SSW,202,6.0,20.0,99,0.00,,---,0.02,VWS V14.01,2013-02-11 11:18:00,
2013-02-11 05:23:00,31.3,31.0,29.18,WSW,240,9.0,20.0,99,0.00,,---,0.02,VWS V14.01,2013-02-11 11:23:00,
2013-02-11 05:28:00,31.3,31.0,29.19,SW,232,12.0,20.0,99,0.00,,---,0.02,VWS V14.01,2013-02-11 11:28:00,
2013-02-11 05:33:00,31.3,31.0,29.19,WSW,237,7.0,14.0,99,0.00,,---,0.02,VWS V14.01,2013-02-11 11:33:00,
2013-02-11 05:38:00,31.1,30.9,29.20,SW,222,12.0,18.0,99,0.00,,---,0.02,VWS V14.01,2013-02-11 11:38:00,
2013-02-11 05:43:00,31.1,30.9,29.20,WSW,243,6.0,18.0,99,0.00,,---,0.02,VWS V14.01,2013-02-11 11:43:00,
2013-02-11 05:48:00,31.1,30.9,29.20,WSW,244,12.0,18.0,99,0.00,,---,0.02,VWS V14.01,2013-02-11 11:48:00,
2013-02-11 05:53:00,31.0,30.8,29.21,WSW,238,9.0,18.0,99,0.00,,---,0.02,VWS V14.01,2013-02-11 11:53:00,
2013-02-11 05:58:00,30.9,30.6,29.21,WSW,245,9.0,19.0,99,0.00,,---,0.02,VWS V14.01,2013-02-11 11:58:00,
2013-02-11 06:03:00,30.9,30.6,29.21,West,267,14.0,15.0,99,0.00,,---,0.02,VWS V14.01,2013-02-11 12:03:00,
2013-02-11 06:08:00,30.9,30.6,29.22,West,275,9.0,21.0,99,0.00,,---,0.02,VWS V14.01,2013-02-11 12:08:00,
2013-02-11 06:13:00,30.8,30.5,29.23,SW,227,7.0,21.0,99,0.00,,---,0.02,VWS V14.01,2013-02-11 12:13:00,
2013-02-11 06:18:00,30.8,30.5,29.23,South,191,5.0,21.0,99,0.00,,---,0.02,VWS V14.01,2013-02-11 12:18:00,
2013-02-11 06:23:00,30.7,30.5,29.23,SW,234,7.0,21.0,99,0.00,,---,0.02,VWS V14.01,2013-02-11 12:23:00,
2013-02-11 06:28:00,30.7,30.5,29.24,WSW,242,4.0,21.0,99,0.00,,---,0.02,VWS V14.01,2013-02-11 12:28:00,
2013-02-11 06:33:00,30.7,30.5,29.24,West,260,12.0,19.0,99,0.00,,---,0.02,VWS V14.01,2013-02-11 12:33:00,
2013-02-11 06:38:00,30.7,30.5,29.25,SSW,195,6.0,19.0,99,0.00,,---,0.02,VWS V14.01,2013-02-11 12:38:00,
2013-02-11 06:43:00,30.7,30.5,29.25,West,271,5.0,19.0,99,0.00,,---,0.02,VWS V14.01,2013-02-11 12:43:00,
2013-02-11 06:48:00,30.6,30.4,29.26,WSW,246,9.0,20.0,99,0.00,,---,0.02,VWS V14.01,2013-02-11 12:48:00,
2013-02-11 06:53:00,30.6,30.4,29.26,SSW,192,6.0,20.0,99,0.00,,---,0.02,VWS V14.01,2013-02-11 12:53:00,
2013-02-11 06:58:00,30.6,30.4,29.27,SSW,211,6.0,20.0,99,0.00,,---,0.02,VWS V14.01,2013-02-11 12:58:00,
2013-02-11 07:03:00,30.6,30.4,29.27,West,261,10.0,11.0,99,0.00,,---,0.02,VWS V14.01,2013-02-11 13:03:00,
2013-02-11 07:08:00,30.5,30.2,29.28,WSW,240,12.0,14.0,99,0.00,,---,0.02,VWS V14.01,2013-02-11 13:08:00,
2013-02-11 07:13:00,30.1,29.9,29.28,SW,225,12.0,20.0,99,0.00,,---,0.02,VWS V14.01,2013-02-11 13:13:00,
2013-02-11 07:18:00,29.8,29.5,29.28,SW,219,7.0,27.0,99,0.00,,---,0.02,VWS V14.01,2013-02-11 13:18:00,
2013-02-11 07:23:00,29.6,29.4,29.29,SSW,209,14.0,27.0,99,0.00,,---,0.02,VWS V14.01,2013-02-11 13:23:00,
2013-02-11 07:28:00,29.5,29.2,29.30,West,263,9.0,27.0,99,0.00,,---,0.02,VWS V14.01,2013-02-11 13:28:00,
2013-02-11 07:33:00,29.4,29.1,29.30,WSW,238,12.0,22.0,99,0.00,,---,0.02,VWS V14.01,2013-02-11 13:33:00,
2013-02-11 07:38:00,29.3,29.0,29.30,WSW,242,4.0,22.0,99,0.00,,---,0.02,VWS V14.01,2013-02-11 13:38:00,
2013-02-11 07:43:00,29.2,29.0,29.31,SW,229,12.0,22.0,99,0.00,,---,0.02,VWS V14.01,2013-02-11 13:43:00,
2013-02-11 07:48:00,29.2,29.0,29.31,WSW,242,10.0,22.0,99,0.00,,---,0.02,VWS V14.01,2013-02-11 13:48:00,
2013-02-11 07:53:00,29.2,29.0,29.32,SW,225,10.0,22.0,99,0.00,,---,0.02,VWS V14.01,2013-02-11 13:53:00,
2013-02-11 07:58:00,29.2,29.0,29.32,WSW,248,12.0,22.0,99,0.00,,---,0.02,VWS V14.01,2013-02-11 13:58:00,
2013-02-11 08:03:00,29.2,29.0,29.33,SW,234,5.0,21.0,99,0.00,,---,0.02,VWS V14.01,2013-02-11 14:03:00,
2013-02-11 08:08:00,29.1,28.9,29.33,SW,227,4.0,21.0,99,0.00,,---,0.02,VWS V14.01,2013-02-11 14:08:00,
2013-02-11 08:13:00,29.1,28.9,29.34,WSW,249,4.0,21.0,99,0.00,,---,0.02,VWS V14.01,2013-02-11 14:13:00,
2013-02-11 08:18:00,29.1,28.6,29.34,South,190,11.0,21.0,98,0.00,,---,0.02,VWS V14.01,2013-02-11 14:18:00,
2013-02-11 08:23:00,29.0,28.8,29.34,WSW,255,4.0,21.0,99,0.00,,---,0.02,VWS V14.01,2013-02-11 14:23:00,
2013-02-11 08:28:00,29.0,28.8,29.34,West,267,13.0,21.0,99,0.00,,---,0.02,VWS V14.01,2013-02-11 14:28:00,
2013-02-11 08:33:00,28.9,28.4,29.34,West,265,13.0,17.0,98,0.00,,---,0.02,VWS V14.01,2013-02-11 14:33:00,
2013-02-11 08:38:00,28.9,28.4,29.35,SW,218,16.0,19.0,98,0.00,,---,0.02,VWS V14.01,2013-02-11 14:38:00,
2013-02-11 08:43:00,28.8,28.3,29.35,SSW,213,17.0,19.0,98,0.00,,---,0.02,VWS V14.01,2013-02-11 14:43:00,
2013-02-11 08:48:00,28.8,28.3,29.36,SW,234,15.0,19.0,98,0.00,,---,0.02,VWS V14.01,2013-02-11 14:48:00,
2013-02-11 08:53:00,28.7,28.2,29.36,WSW,252,6.0,19.0,98,0.00,,---,0.02,VWS V14.01,2013-02-11 14:53:00,
2013-02-11 08:58:00,28.6,28.1,29.36,WSW,247,11.0,19.0,98,0.00,,---,0.02,VWS V14.01,2013-02-11 14:58:00,
2013-02-11 09:03:00,28.5,28.0,29.36,WSW,239,12.0,14.0,98,0.00,,---,0.02,VWS V14.01,2013-02-11 15:03:00,
2013-02-11 09:08:00,28.5,28.0,29.37,SSW,209,9.0,21.0,98,0.00,,---,0.02,VWS V14.01,2013-02-11 15:08:00,
2013-02-11 09:13:00,28.4,27.9,29.37,SW,235,7.0,21.0,98,0.00,,---,0.02,VWS V14.01,2013-02-11 15:13:00,
2013-02-11 09:18:00,28.4,28.4,29.37,WSW,242,14.0,23.0,100,0.00,,---,0.02,VWS V14.01,2013-02-11 15:18:00,
2013-02-11 09:23:00,28.4,27.9,29.38,West,260,9.0,23.0,98,0.00,,---,0.02,VWS V14.01,2013-02-11 15:23:00,
2013-02-11 09:28:00,28.3,27.8,29.38,SW,227,8.0,23.0,98,0.00,,---,0.02,VWS V14.01,2013-02-11 15:28:00,
2013-02-11 09:33:00,28.3,27.8,29.39,WSW,253,4.0,18.0,98,0.00,,---,0.02,VWS V14.01,2013-02-11 15:33:00,
2013-02-11 09:38:00,28.1,27.6,29.39,WNW,286,9.0,20.0,98,0.00,,---,0.02,VWS V14.01,2013-02-11 15:38:00,
2013-02-11 09:43:00,28.0,27.5,29.40,WNW,295,9.0,22.0,98,0.00,,---,0.02,VWS V14.01,2013-02-11 15:43:00,
2013-02-11 09:48:00,27.9,27.2,29.40,WSW,242,10.0,22.0,97,0.00,,---,0.02,VWS V14.01,2013-02-11 15:48:00,
2013-02-11 09:53:00,27.9,27.4,29.40,West,259,14.0,22.0,98,0.00,,---,0.02,VWS V14.01,2013-02-11 15:53:00,
2013-02-11 09:58:00,27.8,27.1,29.41,SW,215,7.0,22.0,97,0.00,,---,0.02,VWS V14.01,2013-02-11 15:58:00,
2013-02-11 10:04:00,27.7,27.0,29.42,SSW,208,11.0,15.0,97,0.00,,---,0.02,VWS V14.01,2013-02-11 16:04:00,
2013-02-11 10:09:00,27.5,26.8,29.42,WSW,257,8.0,19.0,97,0.00,,---,0.02,VWS V14.01,2013-02-11 16:09:00,
2013-02-11 10:14:00,27.4,26.7,29.42,SSW,209,5.0,19.0,97,0.00,,---,0.02,VWS V14.01,2013-02-11 16:14:00,
2013-02-11 10:19:00,27.2,26.5,29.43,SW,225,21.0,21.0,97,0.00,,---,0.02,VWS V14.01,2013-02-11 16:19:00,
2013-02-11 10:24:00,27.2,26.5,29.43,WNW,290,11.0,21.0,97,0.00,,---,0.02,VWS V14.01,2013-02-11 16:24:00,
2013-02-11 10:29:00,27.2,26.5,29.43,WSW,241,11.0,21.0,97,0.00,,---,0.02,VWS V14.01,2013-02-11 16:29:00,
2013-02-11 10:34:00,27.1,26.4,29.44,WSW,238,4.0,17.0,97,0.00,,---,0.02,VWS V14.01,2013-02-11 16:34:00,
2013-02-11 10:39:00,26.9,26.2,29.44,SW,227,12.0,19.0,97,0.00,,---,0.02,VWS V14.01,2013-02-11 16:39:00,
2013-02-11 10:44:00,26.9,26.2,29.45,SSW,207,11.0,19.0,97,0.00,,---,0.02,VWS V14.01,2013-02-11 16:44:00,
2013-02-11 10:49:00,26.9,26.2,29.45,West,263,14.0,19.0,97,0.00,,---,0.02,VWS V14.01,2013-02-11 16:49:00,
2013-02-11 10:54:00,26.7,26.0,29.46,SSW,200,10.0,19.0,97,0.00,,---,0.02,VWS V14.01,2013-02-11 16:54:00,
2013-02-11 10:59:00,26.7,25.7,29.46,WSW,244,12.0,20.0,96,0.00,,---,0.02,VWS V14.01,2013-02-11 16:59:00,
2013-02-11 11:04:00,26.6,25.9,29.46,WSW,240,7.0,17.0,97,0.00,,---,0.02,VWS V14.01,2013-02-11 17:04:00,
2013-02-11 11:09:00,26.6,25.6,29.46,WSW,254,5.0,17.0,96,0.00,,---,0.02,VWS V14.01,2013-02-11 17:09:00,
2013-02-11 11:14:00,26.6,25.9,29.47,WSW,253,4.0,17.0,97,0.00,,---,0.02,VWS V14.01,2013-02-11 17:14:00,
2013-02-11 11:19:00,26.5,25.5,29.47,SW,214,10.0,17.0,96,0.00,,---,0.02,VWS V14.01,2013-02-11 17:19:00,
2013-02-11 11:24:00,26.4,25.4,29.48,WSW,249,5.0,18.0,96,0.00,,---,0.02,VWS V14.01,2013-02-11 17:24:00,
2013-02-11 11:29:00,26.3,25.3,29.48,SW,226,12.0,20.0,96,0.00,,---,0.02,VWS V14.01,2013-02-11 17:29:00,
2013-02-11 11:34:00,26.2,25.2,29.48,West,267,3.0,18.0,96,0.00,,---,0.02,VWS V14.01,2013-02-11 17:34:00,
2013-02-11 11:39:00,26.2,25.2,29.48,West,267,9.0,18.0,96,0.00,,---,0.02,VWS V14.01,2013-02-11 17:39:00,
2013-02-11 11:46:00,26.2,25.2,29.49,SW,221,10.0,18.0,96,0.00,,---,0.02,VWS V14.01,2013-02-11 17:46:00,
2013-02-11 11:51:00,26.0,25.0,29.49,SSW,202,16.0,24.0,96,0.00,,---,0.02,VWS V14.01,2013-02-11 17:51:00,
2013-02-11 11:56:00,25.9,24.9,29.49,WSW,252,3.0,24.0,96,0.00,,---,0.02,VWS V14.01,2013-02-11 17:56:00,
2013-02-11 12:02:00,25.7,24.5,29.50,West,263,7.0,7.0,95,0.00,,---,0.02,VWS V14.01,2013-02-11 18:02:00,
2013-02-11 12:07:00,25.6,24.4,29.50,West,259,11.0,23.0,95,0.00,,---,0.02,VWS V14.01,2013-02-11 18:07:00,
2013-02-11 12:12:00,25.5,24.3,29.50,SSW,206,13.0,23.0,95,0.00,,---,0.02,VWS V14.01,2013-02-11 18:12:00,
2013-02-11 12:17:00,25.5,24.3,29.51,SW,214,8.0,23.0,95,0.00,,---,0.02,VWS V14.01,2013-02-11 18:17:00,
2013-02-11 12:22:00,25.5,24.3,29.51,WSW,239,12.0,23.0,95,0.00,,---,0.02,VWS V14.01,2013-02-11 18:22:00,
2013-02-11 12:27:00,25.4,23.9,29.51,SW,229,6.0,23.0,94,0.00,,---,0.02,VWS V14.01,2013-02-11 18:27:00,
2013-02-11 12:32:00,25.3,23.8,29.51,SW,232,9.0,24.0,94,0.00,,---,0.02,VWS V14.01,2013-02-11 18:32:00,
2013-02-11 12:37:00,25.3,23.8,29.52,WSW,248,5.0,24.0,94,0.00,,---,0.02,VWS V14.01,2013-02-11 18:37:00,
2013-02-11 12:42:00,25.4,23.9,29.52,SW,220,10.0,24.0,94,0.00,,---,0.02,VWS V14.01,2013-02-11 18:42:00,
2013-02-11 12:47:00,25.3,23.8,29.53,West,261,11.0,24.0,94,0.00,,---,0.02,VWS V14.01,2013-02-11 18:47:00,
2013-02-11 12:52:00,25.1,23.6,29.53,South,191,9.0,24.0,94,0.00,,---,0.02,VWS V14.01,2013-02-11 18:52:00,
2013-02-11 12:57:00,24.9,23.4,29.53,WSW,242,12.0,24.0,94,0.00,,---,0.02,VWS V14.01,2013-02-11 18:57:00,
2013-02-11 13:02:00,24.7,23.2,29.53,SSE,157,6.0,15.0,94,0.00,,---,0.02,VWS V14.01,2013-02-11 19:02:00,
2013-02-11 13:07:00,24.6,23.1,29.54,SW,217,4.0,23.0,94,0.00,,---,0.02,VWS V14.01,2013-02-11 19:07:00,
2013-02-11 13:12:00,24.6,23.1,29.54,SSW,209,15.0,23.0,94,0.00,,---,0.02,VWS V14.01,2013-02-11 19:12:00,
2013-02-11 13:17:00,24.5,23.0,29.55,SW,215,11.0,23.0,94,0.00,,---,0.02,VWS V14.01,2013-02-11 19:17:00,
2013-02-11 13:22:00,24.4,22.9,29.55,West,267,14.0,23.0,94,0.00,,---,0.02,VWS V14.01,2013-02-11 19:22:00,
2013-02-11 13:27:00,24.3,22.6,29.55,SW,218,10.0,25.0,93,0.00,,---,0.02,VWS V14.01,2013-02-11 19:27:00,
2013-02-11 13:32:00,24.3,22.6,29.55,SW,224,11.0,17.0,93,0.00,,---,0.02,VWS V14.01,2013-02-11 19:32:00,
2013-02-11 13:37:00,24.2,22.5,29.56,SSW,209,17.0,20.0,93,0.00,,---,0.02,VWS V14.01,2013-02-11 19:37:00,
2013-02-11 13:42:00,24.0,22.3,29.56,West,260,5.0,24.0,93,0.00,,---,0.02,VWS V14.01,2013-02-11 19:42:00,
2013-02-11 13:47:00,24.0,22.3,29.56,WSW,241,10.0,25.0,93,0.00,,---,0.02,VWS V14.01,2013-02-11 19:47:00,
2013-02-11 13:52:00,24.1,22.4,29.56,SW,224,3.0,25.0,93,0.00,,---,0.02,VWS V14.01,2013-02-11 19:52:00,
2013-02-11 13:57:00,24.1,22.1,29.57,West,267,10.0,25.0,92,0.00,,---,0.02,VWS V14.01,2013-02-11 19:57:00,
2013-02-11 14:02:00,24.1,22.1,29.57,WSW,248,11.0,21.0,92,0.00,,---,0.02,VWS V14.01,2013-02-11 20:02:00,
2013-02-11 14:07:00,24.2,22.2,29.57,SW,219,4.0,21.0,92,0.00,,---,0.02,VWS V14.01,2013-02-11 20:07:00,
2013-02-11 14:13:00,24.2,22.2,29.57,NW,309,15.0,21.0,92,0.00,,---,0.02,VWS V14.01,2013-02-11 20:13:00,
2013-02-11 14:18:00,24.3,22.3,29.58,West,260,10.0,21.0,92,0.00,,---,0.02,VWS V14.01,2013-02-11 20:18:00,
2013-02-11 14:23:00,24.3,22.3,29.58,WSW,248,12.0,21.0,92,0.00,,---,0.02,VWS V14.01,2013-02-11 20:23:00,
2013-02-11 14:28:00,24.3,22.3,29.58,West,265,6.0,21.0,92,0.00,,---,0.02,VWS V14.01,2013-02-11 20:28:00,
2013-02-11 14:33:00,24.3,22.1,29.58,West,259,17.0,21.0,91,0.00,,---,0.02,VWS V14.01,2013-02-11 20:33:00,
2013-02-11 14:38:00,24.3,22.1,29.59,WSW,242,10.0,21.0,91,0.00,,---,0.02,VWS V14.01,2013-02-11 20:38:00,
2013-02-11 14:43:00,24.3,22.1,29.59,WSW,239,10.0,22.0,91,0.00,,---,0.02,VWS V14.01,2013-02-11 20:43:00,
2013-02-11 14:48:00,24.3,21.8,29.59,West,267,5.0,22.0,90,0.00,,---,0.02,VWS V14.01,2013-02-11 20:48:00,
2013-02-11 14:53:00,24.3,21.8,29.60,West,262,14.0,22.0,90,0.00,,---,0.02,VWS V14.01,2013-02-11 20:53:00,
2013-02-11 14:58:00,24.4,21.9,29.60,WSW,248,14.0,22.0,90,0.00,,---,0.02,VWS V14.01,2013-02-11 20:58:00,
2013-02-11 15:03:00,24.4,21.9,29.60,WSW,250,11.0,20.0,90,0.00,,---,0.02,VWS V14.01,2013-02-11 21:03:00,
2013-02-11 15:08:00,24.5,21.7,29.61,WSW,247,5.0,20.0,89,0.00,,---,0.02,VWS V14.01,2013-02-11 21:08:00,
2013-02-11 15:13:00,24.5,21.7,29.61,WSW,250,8.0,20.0,89,0.00,,---,0.02,VWS V14.01,2013-02-11 21:13:00,
2013-02-11 15:18:00,24.4,21.4,29.61,West,272,6.0,20.0,88,0.00,,---,0.02,VWS V14.01,2013-02-11 21:18:00,
2013-02-11 15:23:00,24.5,21.7,29.62,WSW,243,12.0,20.0,89,0.00,,---,0.02,VWS V14.01,2013-02-11 21:23:00,
2013-02-11 15:28:00,24.5,21.7,29.62,WSW,247,10.0,20.0,89,0.00,,---,0.02,VWS V14.01,2013-02-11 21:28:00,
2013-02-11 15:33:00,24.5,21.7,29.62,West,266,5.0,11.0,89,0.00,,---,0.02,VWS V14.01,2013-02-11 21:33:00,
2013-02-11 15:38:00,24.5,21.7,29.63,SW,223,13.0,15.0,89,0.00,,---,0.02,VWS V14.01,2013-02-11 21:38:00,
2013-02-11 15:43:00,24.5,21.7,29.63,WNW,299,6.0,17.0,89,0.00,,---,0.02,VWS V14.01,2013-02-11 21:43:00,
2013-02-11 15:48:00,24.5,21.7,29.63,SSW,211,5.0,17.0,89,0.00,,---,0.02,VWS V14.01,2013-02-11 21:48:00,
2013-02-11 15:53:00,24.5,21.7,29.63,WSW,248,9.0,17.0,89,0.00,,---,0.02,VWS V14.01,2013-02-11 21:53:00,
2013-02-11 15:58:00,24.5,21.7,29.64,SW,220,6.0,17.0,89,0.00,,---,0.02,VWS V14.01,2013-02-11 21:58:00,
2013-02-11 16:03:00,24.5,21.7,29.64,WSW,238,5.0,15.0,89,0.00,,---,0.02,VWS V14.01,2013-02-11 22:03:00,
2013-02-11 16:08:00,24.5,21.7,29.64,WNW,284,5.0,15.0,89,0.00,,---,0.02,VWS V14.01,2013-02-11 22:08:00,
2013-02-11 16:13:00,24.4,21.6,29.65,SW,231,12.0,16.0,89,0.00,,---,0.02,VWS V14.01,2013-02-11 22:13:00,
2013-02-11 16:18:00,24.5,21.7,29.65,WSW,240,6.0,17.0,89,0.00,,---,0.02,VWS V14.01,2013-02-11 22:18:00,
2013-02-11 16:23:00,24.4,21.9,29.65,West,280,6.0,17.0,90,0.00,,---,0.02,VWS V14.01,2013-02-11 22:23:00,
2013-02-11 16:28:00,24.4,21.6,29.65,SSW,199,11.0,17.0,89,0.00,,---,0.02,VWS V14.01,2013-02-11 22:28:00,
2013-02-11 16:33:00,24.4,21.6,29.66,SW,217,10.0,18.0,89,0.00,,---,0.02,VWS V14.01,2013-02-11 22:33:00,
2013-02-11 16:38:00,24.4,21.4,29.66,WSW,249,22.0,24.0,88,0.00,,---,0.02,VWS V14.01,2013-02-11 22:38:00,
2013-02-11 16:43:00,24.4,21.4,29.66,WSW,238,10.0,24.0,88,0.00,,---,0.02,VWS V14.01,2013-02-11 22:43:00,
2013-02-11 16:48:00,24.3,21.0,29.66,West,274,14.0,24.0,87,0.00,,---,0.02,VWS V14.01,2013-02-11 22:48:00,
2013-02-11 16:53:00,24.3,21.3,29.67,West,265,11.0,24.0,88,0.00,,---,0.02,VWS V14.01,2013-02-11 22:53:00,
2013-02-11 16:58:00,24.2,20.9,29.67,WSW,244,10.0,24.0,87,0.00,,---,0.02,VWS V14.01,2013-02-11 22:58:00,
2013-02-11 17:02:00,24.2,21.2,29.67,SSW,205,7.0,13.0,88,0.00,,---,0.02,VWS V14.01,2013-02-11 23:02:00,
2013-02-11 17:08:00,24.2,20.9,29.67,WSW,254,5.0,19.0,87,0.00,,---,0.02,VWS V14.01,2013-02-11 23:08:00,
2013-02-11 17:13:00,24.1,20.8,29.67,WSW,254,12.0,19.0,87,0.00,,---,0.02,VWS V14.01,2013-02-11 23:13:00,
2013-02-11 17:18:00,24.0,20.7,29.68,West,263,10.0,19.0,87,0.00,,---,0.02,VWS V14.01,2013-02-11 23:18:00,
2013-02-11 17:23:00,24.1,20.8,29.68,SW,230,13.0,19.0,87,0.00,,---,0.02,VWS V14.01,2013-02-11 23:23:00,
2013-02-11 17:28:00,24.1,20.8,29.68,WSW,245,17.0,19.0,87,0.00,,---,0.02,VWS V14.01,2013-02-11 23:28:00,
2013-02-11 17:33:00,24.1,20.5,29.69,WSW,248,5.0,16.0,86,0.00,,---,0.02,VWS V14.01,2013-02-11 23:33:00,
2013-02-11 17:38:00,24.0,20.7,29.69,WSW,257,10.0,16.0,87,0.00,,---,0.02,VWS V14.01,2013-02-11 23:38:00,
2013-02-11 17:43:00,24.0,20.7,29.69,West,267,7.0,19.0,87,0.00,,---,0.02,VWS V14.01,2013-02-11 23:43:00,
2013-02-11 17:48:00,23.9,20.6,29.69,SW,223,5.0,19.0,87,0.00,,---,0.02,VWS V14.01,2013-02-11 23:48:00,
2013-02-11 17:53:00,23.9,20.6,29.70,WSW,241,11.0,19.0,87,0.00,,---,0.02,VWS V14.01,2013-02-11 23:53:00,
2013-02-11 17:58:00,23.9,20.6,29.70,SW,229,15.0,19.0,87,0.00,,---,0.02,VWS V14.01,2013-02-11 23:58:00,
2013-02-11 18:03:00,23.9,20.6,29.70,SSW,206,14.0,15.0,87,0.00,,---,0.02,VWS V14.01,2013-02-12 00:03:00,
2013-02-11 18:08:00,23.8,20.2,29.70,WNW,286,6.0,18.0,86,0.00,,---,0.02,VWS V14.01,2013-02-12 00:08:00,
2013-02-11 18:13:00,23.8,20.2,29.71,WSW,242,16.0,19.0,86,0.00,,---,0.02,VWS V14.01,2013-02-12 00:13:00,
2013-02-11 18:18:00,23.8,20.2,29.71,WSW,255,11.0,19.0,86,0.00,,---,0.02,VWS V14.01,2013-02-12 00:18:00,
2013-02-11 18:23:00,23.8,20.2,29.72,WNW,285,10.0,19.0,86,0.00,,---,0.02,VWS V14.01,2013-02-12 00:23:00,
2013-02-11 18:28:00,23.7,20.1,29.73,South,182,13.0,19.0,86,0.00,,---,0.02,VWS V14.01,2013-02-12 00:28:00,
2013-02-11 18:33:00,23.8,20.2,29.72,WSW,240,5.0,19.0,86,0.00,,---,0.02,VWS V14.01,2013-02-12 00:33:00,
2013-02-11 18:38:00,23.7,20.1,29.73,SW,229,10.0,19.0,86,0.00,,---,0.02,VWS V14.01,2013-02-12 00:38:00,
2013-02-11 18:43:00,23.7,20.1,29.72,West,264,9.0,19.0,86,0.00,,---,0.02,VWS V14.01,2013-02-12 00:43:00,
2013-02-11 18:48:00,23.7,20.1,29.73,SSW,198,6.0,19.0,86,0.00,,---,0.02,VWS V14.01,2013-02-12 00:48:00,
2013-02-11 18:53:00,23.8,20.2,29.73,West,261,2.0,19.0,86,0.00,,---,0.02,VWS V14.01,2013-02-12 00:53:00,
2013-02-11 18:58:00,23.8,20.2,29.73,WSW,248,5.0,19.0,86,0.00,,---,0.02,VWS V14.01,2013-02-12 00:58:00,
2013-02-11 19:03:00,23.8,20.2,29.73,WSW,243,4.0,16.0,86,0.00,,---,0.02,VWS V14.01,2013-02-12 01:03:00,
2013-02-11 19:08:00,23.8,20.2,29.73,SSW,213,6.0,17.0,86,0.00,,---,0.02,VWS V14.01,2013-02-12 01:08:00,
2013-02-11 19:13:00,23.8,20.2,29.74,WSW,249,9.0,17.0,86,0.00,,---,0.02,VWS V14.01,2013-02-12 01:13:00,
2013-02-11 19:18:00,23.8,20.2,29.74,SW,221,5.0,17.0,86,0.00,,---,0.02,VWS V14.01,2013-02-12 01:18:00,
2013-02-11 19:23:00,23.8,20.5,29.74,SW,222,10.0,17.0,87,0.00,,---,0.02,VWS V14.01,2013-02-12 01:23:00,
2013-02-11 19:28:00,23.7,20.4,29.74,SW,235,9.0,17.0,87,0.00,,---,0.02,VWS V14.01,2013-02-12 01:28:00,
2013-02-11 19:33:00,23.7,20.1,29.74,WSW,248,7.0,14.0,86,0.00,,---,0.02,VWS V14.01,2013-02-12 01:33:00,
2013-02-11 19:38:00,23.7,20.4,29.74,SW,225,13.0,15.0,87,0.00,,---,0.02,VWS V14.01,2013-02-12 01:38:00,
2013-02-11 19:43:00,23.8,20.5,29.75,WSW,238,6.0,15.0,87,0.00,,---,0.02,VWS V14.01,2013-02-12 01:43:00,
2013-02-11 19:48:00,23.7,20.1,29.75,SW,225,15.0,16.0,86,0.00,,---,0.02,VWS V14.01,2013-02-12 01:48:00,
2013-02-11 19:53:00,23.7,20.1,29.75,WSW,246,12.0,18.0,86,0.00,,---,0.02,VWS V14.01,2013-02-12 01:53:00,
2013-02-11 19:58:00,23.7,20.1,29.75,SW,236,9.0,18.0,86,0.00,,---,0.02,VWS V14.01,2013-02-12 01:58:00,
2013-02-11 20:03:00,23.7,20.1,29.75,SW,225,6.0,15.0,86,0.00,,---,0.02,VWS V14.01,2013-02-12 02:03:00,
2013-02-11 20:08:00,23.6,20.0,29.75,SW,232,4.0,15.0,86,0.00,,---,0.02,VWS V14.01,2013-02-12 02:08:00,
2013-02-11 20:13:00,23.5,19.9,29.75,SW,229,3.0,15.0,86,0.00,,---,0.02,VWS V14.01,2013-02-12 02:13:00,
2013-02-11 20:18:00,23.5,19.9,29.75,SW,228,7.0,15.0,86,0.00,,---,0.02,VWS V14.01,2013-02-12 02:18:00,
2013-02-11 20:23:00,23.5,19.9,29.76,SW,227,8.0,18.0,86,0.00,,---,0.02,VWS V14.01,2013-02-12 02:23:00,
2013-02-11 20:28:00,23.4,19.8,29.76,WSW,252,9.0,18.0,86,0.00,,---,0.02,VWS V14.01,2013-02-12 02:28:00,
2013-02-11 20:33:00,23.4,19.8,29.77,WSW,248,10.0,13.0,86,0.00,,---,0.02,VWS V14.01,2013-02-12 02:33:00,
2013-02-11 20:38:00,23.3,20.0,29.77,SW,225,3.0,16.0,87,0.00,,---,0.02,VWS V14.01,2013-02-12 02:38:00,
2013-02-11 20:43:00,23.3,19.7,29.77,SW,217,1.0,16.0,86,0.00,,---,0.02,VWS V14.01,2013-02-12 02:43:00,
2013-02-11 20:48:00,23.2,19.9,29.77,WSW,238,1.0,16.0,87,0.00,,---,0.02,VWS V14.01,2013-02-12 02:48:00,
2013-02-11 20:53:00,23.1,19.8,29.77,WSW,253,9.0,16.0,87,0.00,,---,0.02,VWS V14.01,2013-02-12 02:53:00,
2013-02-11 20:58:00,23.0,19.7,29.77,WSW,255,6.0,18.0,87,0.00,,---,0.02,VWS V14.01,2013-02-12 02:58:00,
2013-02-11 21:03:00,23.0,19.7,29.77,SW,226,5.0,11.0,87,0.00,,---,0.02,VWS V14.01,2013-02-12 03:03:00,
2013-02-11 21:08:00,22.9,19.6,29.78,WSW,256,7.0,14.0,87,0.00,,---,0.02,VWS V14.01,2013-02-12 03:08:00,
2013-02-11 21:13:00,22.9,19.6,29.78,WSW,240,3.0,14.0,87,0.00,,---,0.02,VWS V14.01,2013-02-12 03:13:00,
2013-02-11 21:18:00,22.9,19.4,29.78,WSW,237,5.0,14.0,86,0.00,,---,0.02,VWS V14.01,2013-02-12 03:18:00,
2013-02-11 21:23:00,22.9,19.4,29.78,SW,217,7.0,14.0,86,0.00,,---,0.02,VWS V14.01,2013-02-12 03:23:00,
2013-02-11 21:28:00,22.9,19.4,29.78,SW,219,5.0,19.0,86,0.00,,---,0.02,VWS V14.01,2013-02-12 03:28:00,
2013-02-11 21:33:00,22.9,19.4,29.78,South,174,4.0,11.0,86,0.00,,---,0.02,VWS V14.01,2013-02-12 03:33:00,
2013-02-11 21:38:00,22.8,19.2,29.78,West,268,12.0,12.0,86,0.00,,---,0.02,VWS V14.01,2013-02-12 03:38:00,
2013-02-11 21:43:00,22.8,19.0,29.78,SW,236,5.0,16.0,85,0.00,,---,0.02,VWS V14.01,2013-02-12 03:43:00,
2013-02-11 21:48:00,22.8,19.0,29.78,WNW,284,11.0,18.0,85,0.00,,---,0.02,VWS V14.01,2013-02-12 03:48:00,
2013-02-11 21:53:00,22.7,18.9,29.79,SW,218,5.0,19.0,85,0.00,,---,0.02,VWS V14.01,2013-02-12 03:53:00,
2013-02-11 21:58:00,22.7,18.9,29.79,WSW,242,8.0,19.0,85,0.00,,---,0.02,VWS V14.01,2013-02-12 03:58:00,
2013-02-11 22:03:00,22.6,18.5,29.79,WNW,283,11.0,18.0,84,0.00,,---,0.02,VWS V14.01,2013-02-12 04:03:00,
2013-02-11 22:08:00,22.5,18.7,29.79,SW,236,13.0,18.0,85,0.00,,---,0.02,VWS V14.01,2013-02-12 04:08:00,
2013-02-11 22:13:00,22.5,18.4,29.79,SW,236,7.0,18.0,84,0.00,,---,0.02,VWS V14.01,2013-02-12 04:13:00,
2013-02-11 22:18:00,22.4,18.6,29.80,SW,229,4.0,18.0,85,0.00,,---,0.02,VWS V14.01,2013-02-12 04:18:00,
2013-02-11 22:23:00,22.4,18.6,29.80,SW,215,7.0,18.0,85,0.00,,---,0.02,VWS V14.01,2013-02-12 04:23:00,
2013-02-11 22:28:00,22.3,18.5,29.80,WSW,255,14.0,18.0,85,0.00,,---,0.02,VWS V14.01,2013-02-12 04:28:00,
2013-02-11 22:33:00,22.2,18.1,29.81,SW,234,11.0,15.0,84,0.00,,---,0.02,VWS V14.01,2013-02-12 04:33:00,
2013-02-11 22:38:00,22.1,18.3,29.80,WSW,247,5.0,15.0,85,0.00,,---,0.02,VWS V14.01,2013-02-12 04:38:00,
2013-02-11 22:43:00,22.0,18.2,29.81,SSW,197,12.0,15.0,85,0.00,,---,0.02,VWS V14.01,2013-02-12 04:43:00,
2013-02-11 22:48:00,21.9,17.8,29.81,WSW,257,11.0,16.0,84,0.00,,---,0.02,VWS V14.01,2013-02-12 04:48:00,
2013-02-11 22:53:00,21.7,17.9,29.81,SSW,208,6.0,16.0,85,0.00,,---,0.02,VWS V14.01,2013-02-12 04:53:00,
2013-02-11 22:58:00,21.6,17.5,29.81,WSW,250,10.0,23.0,84,0.00,,---,0.02,VWS V14.01,2013-02-12 04:58:00,
2013-02-11 23:00:00,21.6,17.5,29.81,SW,233,12.0,23.0,84,0.00,,---,0.02,VWS V14.01,2013-02-12 05:00:00,
2013-02-11 23:05:00,21.5,19.5,29.81,SW,221,4.0,16.0,92,0.00,,---,0.02,VWS V14.01,2013-02-12 05:05:00,
2013-02-11 23:10:00,21.5,17.7,29.81,SW,236,7.0,16.0,85,0.00,,---,0.02,VWS V14.01,2013-02-12 05:10:00,
2013-02-11 23:15:00,21.5,17.7,29.81,SW,228,4.0,16.0,85,0.00,,---,0.02,VWS V14.01,2013-02-12 05:15:00,
2013-02-11 23:20:00,21.3,17.5,29.81,WSW,254,6.0,16.0,85,0.00,,---,0.02,VWS V14.01,2013-02-12 05:20:00,
2013-02-11 23:25:00,21.2,17.7,29.81,SW,215,6.0,16.0,86,0.00,,---,0.02,VWS V14.01,2013-02-12 05:25:00,
2013-02-11 23:30:00,21.1,17.3,29.82,SW,221,9.0,18.0,85,0.00,,---,0.02,VWS V14.01,2013-02-12 05:30:00,
2013-02-11 23:35:00,20.9,17.1,29.82,SSW,202,6.0,14.0,85,0.00,,---,0.02,VWS V14.01,2013-02-12 05:35:00,
2013-02-11 23:40:00,20.7,16.9,29.82,West,279,6.0,14.0,85,0.00,,---,0.02,VWS V14.01,2013-02-12 05:40:00,
2013-02-11 23:45:00,20.7,17.2,29.82,WSW,246,8.0,14.0,86,0.00,,---,0.02,VWS V14.01,2013-02-12 05:45:00,
2013-02-11 23:50:00,20.6,17.1,29.82,SW,236,8.0,14.0,86,0.00,,---,0.02,VWS V14.01,2013-02-12 05:50:00,
2013-02-11 23:55:00,20.5,17.0,29.82,WSW,242,5.0,14.0,86,0.00,,---,0.02,VWS V14.01,2013-02-12 05:55:00,